createdAt,value
2019-03-11T00:00:58.058Z,19.75
2019-03-11T00:01:57.804Z,19.75
2019-03-11T00:02:57.950Z,19.75
2019-03-11T00:03:58.110Z,19.75
2019-03-11T00:04:57.857Z,19.75
2019-03-11T00:05:57.937Z,19.75
2019-03-11T00:06:58.048Z,19.75
2019-03-11T00:07:57.920Z,19.75
2019-03-11T00:08:57.961Z,19.75
2019-03-11T00:09:58.114Z,19.75
2019-03-11T00:10:57.916Z,19.75
2019-03-11T00:11:57.957Z,19.75
2019-03-11T00:12:58.069Z,19.75
2019-03-11T00:13:57.853Z,19.75
2019-03-11T00:14:57.963Z,19.75
2019-03-11T00:15:58.091Z,19.75
2019-03-11T00:16:57.860Z,19.75
2019-03-11T00:17:58.063Z,19.75
2019-03-11T00:18:58.052Z,19.75
2019-03-11T00:19:57.924Z,19.75
2019-03-11T00:20:57.923Z,19.75
2019-03-11T00:21:58.092Z,19.75
2019-03-11T00:22:58.013Z,19.75
2019-03-11T00:23:57.952Z,19.75
2019-03-11T00:24:58.078Z,19.75
2019-03-11T00:25:58.183Z,19.75
2019-03-11T00:26:57.995Z,19.75
2019-03-11T00:27:58.065Z,19.75
2019-03-11T00:28:57.908Z,19.75
2019-03-11T00:29:57.961Z,19.75
2019-03-11T00:30:58.068Z,19.75
2019-03-11T00:31:57.885Z,19.75
2019-03-11T00:32:57.961Z,19.75
2019-03-11T00:33:58.081Z,19.75
2019-03-11T00:34:57.906Z,19.75
2019-03-11T00:35:57.955Z,19.75
2019-03-11T00:36:57.846Z,19.75
2019-03-11T00:37:57.909Z,19.75
2019-03-11T00:38:57.971Z,19.75
2019-03-11T00:39:57.813Z,19.75
2019-03-11T00:40:57.936Z,19.75
2019-03-11T00:41:58.124Z,19.75
2019-03-11T00:42:57.816Z,19.75
2019-03-11T00:43:57.970Z,19.75
2019-03-11T00:44:58.038Z,19.75
2019-03-11T00:45:57.955Z,19.5
2019-03-11T00:46:57.944Z,19.5
2019-03-11T00:48:02.922Z,19.5
2019-03-11T00:48:57.987Z,19.5
2019-03-11T00:49:57.970Z,19.5
2019-03-11T00:50:58.012Z,19.5
2019-03-11T00:51:57.845Z,19.5
2019-03-11T00:52:57.994Z,19.5
2019-03-11T00:53:58.025Z,19.5
2019-03-11T00:54:57.828Z,19.5
2019-03-11T00:55:58.090Z,19.5
2019-03-11T00:56:58.081Z,19.5
2019-03-11T00:57:57.930Z,19.5
2019-03-11T00:58:57.972Z,19.5
2019-03-11T00:59:58.032Z,19.5
2019-03-11T01:00:57.923Z,19.5
2019-03-11T01:01:59.272Z,19.5
2019-03-11T01:02:58.234Z,19.5
2019-03-11T01:03:57.992Z,19.5
2019-03-11T01:04:58.004Z,19.5
2019-03-11T01:05:57.825Z,19.5
2019-03-11T01:06:57.888Z,19.5
2019-03-11T01:07:58.028Z,19.5
2019-03-11T01:08:57.873Z,19.5
2019-03-11T01:09:58.425Z,19.5
2019-03-11T01:10:58.043Z,19.5
2019-03-11T01:11:57.875Z,19.5
2019-03-11T01:12:58.026Z,19.5
2019-03-11T01:13:58.143Z,19.5
2019-03-11T01:14:58.018Z,19.5
2019-03-11T01:15:58.031Z,19.5
2019-03-11T01:16:58.073Z,19.5
2019-03-11T01:17:57.914Z,19.5
2019-03-11T01:18:57.953Z,19.5
2019-03-11T01:19:58.089Z,19.5
2019-03-11T01:20:57.973Z,19.5
2019-03-11T01:21:58.022Z,19.5
2019-03-11T01:22:57.759Z,19.5
2019-03-11T01:23:57.928Z,19.5
2019-03-11T01:24:57.949Z,19.5
2019-03-11T01:25:57.783Z,19.5
2019-03-11T01:26:57.974Z,19.5
2019-03-11T01:27:57.937Z,19.5
2019-03-11T01:28:57.786Z,19.5
2019-03-11T01:29:57.947Z,19.5
2019-03-11T01:30:57.945Z,19.5
2019-03-11T01:31:58.154Z,19.5
2019-03-11T01:32:57.930Z,19.5
2019-03-11T01:33:57.993Z,19.5
2019-03-11T01:34:57.826Z,19.5
2019-03-11T01:35:57.945Z,19.5
2019-03-11T01:36:58.117Z,19.5
2019-03-11T01:37:57.859Z,19.5
2019-03-11T01:38:58.051Z,19.5
2019-03-11T01:39:57.935Z,19.5
2019-03-11T01:40:57.864Z,19.5
2019-03-11T01:41:58.038Z,19.5
2019-03-11T01:42:57.842Z,19.5
2019-03-11T01:43:57.899Z,19.5
2019-03-11T01:44:57.993Z,19.5
2019-03-11T01:45:57.968Z,19.5
2019-03-11T01:46:58.266Z,19.5
2019-03-11T01:47:58.029Z,19.5
2019-03-11T01:48:57.865Z,19.5
2019-03-11T01:49:57.939Z,19.5
2019-03-11T01:50:58.010Z,19.5
2019-03-11T01:51:57.887Z,19.5
2019-03-11T01:52:58.015Z,19.5
2019-03-11T01:53:58.178Z,19.5
2019-03-11T01:54:57.861Z,19.5
2019-03-11T01:55:57.944Z,19.5
2019-03-11T01:56:58.053Z,19.5
2019-03-11T01:57:57.825Z,19.5
2019-03-11T01:58:58.227Z,19.5
2019-03-11T01:59:57.789Z,19.5
2019-03-11T02:00:57.908Z,19.5
2019-03-11T02:01:58.076Z,19.5
2019-03-11T02:02:57.815Z,19.5
2019-03-11T02:03:57.899Z,19.5
2019-03-11T02:04:57.992Z,19.5
2019-03-11T02:05:57.956Z,19.5
2019-03-11T02:06:57.952Z,19.5
2019-03-11T02:07:58.004Z,19.5
2019-03-11T02:08:57.892Z,19.25
2019-03-11T02:09:58.007Z,19.5
2019-03-11T02:10:57.827Z,19.25
2019-03-11T02:11:57.851Z,19.5
2019-03-11T02:12:57.965Z,19.25
2019-03-11T02:13:57.747Z,19.25
2019-03-11T02:14:57.971Z,19.5
2019-03-11T02:15:58.117Z,19.25
2019-03-11T02:16:57.847Z,19.25
2019-03-11T02:17:57.898Z,19.25
2019-03-11T02:18:58.005Z,19.25
2019-03-11T02:19:57.804Z,19.25
2019-03-11T02:20:57.882Z,19.25
2019-03-11T02:21:57.958Z,19.25
2019-03-11T02:22:57.970Z,19.25
2019-03-11T02:23:58.245Z,19.25
2019-03-11T02:24:58.014Z,19.25
2019-03-11T02:25:57.871Z,19.25
2019-03-11T02:26:58.012Z,19.25
2019-03-11T02:27:58.024Z,19.25
2019-03-11T02:28:57.986Z,19.25
2019-03-11T02:29:57.914Z,19.25
2019-03-11T02:30:58.063Z,19.25
2019-03-11T02:31:57.838Z,19.25
2019-03-11T02:32:57.979Z,19.25
2019-03-11T02:33:57.818Z,19.25
2019-03-11T02:34:57.866Z,19.25
2019-03-11T02:35:58.285Z,19.25
2019-03-11T02:36:57.894Z,19.25
2019-03-11T02:37:57.928Z,19.25
2019-03-11T02:38:58.001Z,19.25
2019-03-11T02:39:57.889Z,19.25
2019-03-11T02:40:58.180Z,19.25
2019-03-11T02:41:58.139Z,19.25
2019-03-11T02:42:57.827Z,19.25
2019-03-11T02:43:57.994Z,19.25
2019-03-11T02:44:58.008Z,19.25
2019-03-11T02:45:57.873Z,19.25
2019-03-11T02:46:57.955Z,19.25
2019-03-11T02:47:57.819Z,19.25
2019-03-11T02:48:57.903Z,19.25
2019-03-11T02:49:58.034Z,19.25
2019-03-11T02:50:57.868Z,19.25
2019-03-11T02:51:57.847Z,19.25
2019-03-11T02:52:58.004Z,19.25
2019-03-11T02:53:57.837Z,19.25
2019-03-11T02:54:57.965Z,19.25
2019-03-11T02:55:57.975Z,19.25
2019-03-11T02:56:57.865Z,19.25
2019-03-11T02:57:57.858Z,19.25
2019-03-11T02:58:57.944Z,19.25
2019-03-11T02:59:57.817Z,19.25
2019-03-11T03:00:57.881Z,19.25
2019-03-11T03:01:58.026Z,19.25
2019-03-11T03:02:57.838Z,19.25
2019-03-11T03:03:57.986Z,19.25
2019-03-11T03:04:57.755Z,19.25
2019-03-11T03:05:57.838Z,19.25
2019-03-11T03:06:57.969Z,19.25
2019-03-11T03:07:57.846Z,19.25
2019-03-11T03:08:57.927Z,19.25
2019-03-11T03:09:57.952Z,19.25
2019-03-11T03:10:57.898Z,19.25
2019-03-11T03:11:57.957Z,19.25
2019-03-11T03:12:58.083Z,19.25
2019-03-11T03:13:57.826Z,19.25
2019-03-11T03:14:58.000Z,19.25
2019-03-11T03:15:57.815Z,19.25
2019-03-11T03:16:57.927Z,19.25
2019-03-11T03:17:58.002Z,19.25
2019-03-11T03:18:57.855Z,19.25
2019-03-11T03:19:57.952Z,19.25
2019-03-11T03:20:58.297Z,19.25
2019-03-11T03:21:57.819Z,19.25
2019-03-11T03:22:58.015Z,19.25
2019-03-11T03:23:58.072Z,19.25
2019-03-11T03:24:57.859Z,19.25
2019-03-11T03:25:57.863Z,19.25
2019-03-11T03:26:58.089Z,19.25
2019-03-11T03:27:58.566Z,19.25
2019-03-11T03:28:57.873Z,19.25
2019-03-11T03:29:58.020Z,19.25
2019-03-11T03:30:57.977Z,19.25
2019-03-11T03:31:57.983Z,19.25
2019-03-11T03:32:57.772Z,19.25
2019-03-11T03:33:57.886Z,19.25
2019-03-11T03:34:57.916Z,19.25
2019-03-11T03:35:57.713Z,19.25
2019-03-11T03:36:57.893Z,19.25
2019-03-11T03:37:57.876Z,19.25
2019-03-11T03:38:57.758Z,19.25
2019-03-11T03:39:57.821Z,19.25
2019-03-11T03:40:57.902Z,19.25
2019-03-11T03:41:57.886Z,19.25
2019-03-11T03:42:58.978Z,19.25
2019-03-11T03:43:57.927Z,19.25
2019-03-11T03:44:57.810Z,19.25
2019-03-11T03:45:57.885Z,19.25
2019-03-11T03:46:58.991Z,19.25
2019-03-11T03:47:57.794Z,19.25
2019-03-11T03:48:57.903Z,19.25
2019-03-11T03:49:57.957Z,19.25
2019-03-11T03:50:57.828Z,19.25
2019-03-11T03:51:58.119Z,19.25
2019-03-11T03:52:57.948Z,19.25
2019-03-11T03:53:57.942Z,19.25
2019-03-11T03:54:57.895Z,19.25
2019-03-11T03:55:58.002Z,19
2019-03-11T03:56:57.893Z,19
2019-03-11T03:57:57.999Z,19.25
2019-03-11T03:58:57.769Z,19.25
2019-03-11T03:59:57.878Z,19
2019-03-11T04:00:57.951Z,19
2019-03-11T04:01:58.043Z,19
2019-03-11T04:02:57.822Z,19.25
2019-03-11T04:03:58.158Z,19.25
2019-03-11T04:04:58.234Z,19
2019-03-11T04:05:57.864Z,19
2019-03-11T04:06:58.206Z,19
2019-03-11T04:07:57.821Z,19
2019-03-11T04:08:57.892Z,19
2019-03-11T04:09:57.971Z,19
2019-03-11T04:10:57.840Z,19
2019-03-11T04:11:57.989Z,19
2019-03-11T04:12:58.001Z,19
2019-03-11T04:13:57.948Z,19
2019-03-11T04:14:58.010Z,19
2019-03-11T04:15:58.061Z,19
2019-03-11T04:16:57.931Z,19
2019-03-11T04:17:58.026Z,19
2019-03-11T04:18:57.882Z,19
2019-03-11T04:19:57.936Z,19
2019-03-11T04:20:58.094Z,19
2019-03-11T04:21:57.764Z,19
2019-03-11T04:22:57.902Z,19
2019-03-11T04:23:58.061Z,19
2019-03-11T04:24:57.838Z,19
2019-03-11T04:25:58.261Z,19
2019-03-11T04:26:57.927Z,19
2019-03-11T04:27:57.817Z,19
2019-03-11T04:28:57.885Z,19
2019-03-11T04:29:57.965Z,19
2019-03-11T04:30:57.889Z,19
2019-03-11T04:31:57.916Z,19
2019-03-11T04:32:57.794Z,19
2019-03-11T04:33:57.785Z,19
2019-03-11T04:34:57.901Z,19
2019-03-11T04:35:57.837Z,19
2019-03-11T04:36:57.788Z,19
2019-03-11T04:37:57.941Z,19
2019-03-11T04:38:57.775Z,19
2019-03-11T04:39:57.804Z,19
2019-03-11T04:40:57.922Z,19
2019-03-11T04:41:57.777Z,19
2019-03-11T04:42:57.829Z,19
2019-03-11T04:43:57.902Z,19
2019-03-11T04:44:57.825Z,19
2019-03-11T04:45:57.816Z,19
2019-03-11T04:46:58.030Z,19
2019-03-11T04:47:57.818Z,19
2019-03-11T04:48:57.965Z,19
2019-03-11T04:50:00.871Z,19
2019-03-11T04:50:57.753Z,19
2019-03-11T04:51:57.855Z,19
2019-03-11T04:52:57.965Z,19
2019-03-11T04:53:57.801Z,19
2019-03-11T04:54:57.913Z,19
2019-03-11T04:55:57.733Z,19
2019-03-11T04:56:57.894Z,19
2019-03-11T04:57:57.842Z,19
2019-03-11T04:58:57.705Z,19
2019-03-11T04:59:57.876Z,19.25
2019-03-11T05:00:57.991Z,19.25
2019-03-11T05:01:57.734Z,19.25
2019-03-11T05:02:57.834Z,19.25
2019-03-11T05:03:57.924Z,19.25
2019-03-11T05:04:57.873Z,19.25
2019-03-11T05:05:57.794Z,19.25
2019-03-11T05:06:57.973Z,19.25
2019-03-11T05:07:57.795Z,19.25
2019-03-11T05:08:58.678Z,19.25
2019-03-11T05:09:57.903Z,19.25
2019-03-11T05:10:57.793Z,19.25
2019-03-11T05:11:58.003Z,19.25
2019-03-11T05:12:57.761Z,19.25
2019-03-11T05:13:57.745Z,19.25
2019-03-11T05:14:57.933Z,19.25
2019-03-11T05:15:57.734Z,19.25
2019-03-11T05:16:57.795Z,19.5
2019-03-11T05:17:57.928Z,19.5
2019-03-11T05:18:58.008Z,19.5
2019-03-11T05:19:57.863Z,19.5
2019-03-11T05:20:57.887Z,19.5
2019-03-11T05:21:57.738Z,19.5
2019-03-11T05:22:57.907Z,19.5
2019-03-11T05:23:57.989Z,19.5
2019-03-11T05:24:57.785Z,19.5
2019-03-11T05:25:57.849Z,19.5
2019-03-11T05:26:57.943Z,19.5
2019-03-11T05:27:57.781Z,19.5
2019-03-11T05:28:57.929Z,19.5
2019-03-11T05:29:58.007Z,19.5
2019-03-11T05:30:57.955Z,19.5
2019-03-11T05:31:57.837Z,19.5
2019-03-11T05:32:57.945Z,19.5
2019-03-11T05:33:57.771Z,19.75
2019-03-11T05:34:57.913Z,19.75
2019-03-11T05:35:58.230Z,19.75
2019-03-11T05:36:57.837Z,19.75
2019-03-11T05:37:57.964Z,19.75
2019-03-11T05:38:57.701Z,19.75
2019-03-11T05:39:57.823Z,19.75
2019-03-11T05:40:57.901Z,19.75
2019-03-11T05:41:57.819Z,19.75
2019-03-11T05:42:57.785Z,19.75
2019-03-11T05:43:57.977Z,19.75
2019-03-11T05:44:57.745Z,19.75
2019-03-11T05:45:57.853Z,19.75
2019-03-11T05:46:58.016Z,19.75
2019-03-11T05:47:57.734Z,19.75
2019-03-11T05:48:57.859Z,19.75
2019-03-11T05:49:57.862Z,19.75
2019-03-11T05:50:58.044Z,19.5
2019-03-11T05:51:57.841Z,19.5
2019-03-11T05:52:57.986Z,19.5
2019-03-11T05:53:57.812Z,19.25
2019-03-11T05:54:57.854Z,19.25
2019-03-11T05:55:58.681Z,19.25
2019-03-11T05:56:59.415Z,19.25
2019-03-11T05:57:57.823Z,19.25
2019-03-11T05:58:57.921Z,19.25
2019-03-11T05:59:57.884Z,19.25
2019-03-11T06:00:57.845Z,19.25
2019-03-11T06:01:57.905Z,19.5
2019-03-11T06:02:57.783Z,19.5
2019-03-11T06:03:57.902Z,19.5
2019-03-11T06:04:57.738Z,19.5
2019-03-11T06:05:57.792Z,19.5
2019-03-11T06:06:57.916Z,19.5
2019-03-11T06:07:57.848Z,19.5
2019-03-11T06:08:57.804Z,19.5
2019-03-11T06:09:57.947Z,19.5
2019-03-11T06:10:57.737Z,19.5
2019-03-11T06:11:57.820Z,19.5
2019-03-11T06:12:58.030Z,19.5
2019-03-11T06:13:57.812Z,19.5
2019-03-11T06:14:57.847Z,19.5
2019-03-11T06:15:57.679Z,19.5
2019-03-11T06:16:57.825Z,19.75
2019-03-11T06:17:57.915Z,19.75
2019-03-11T06:18:57.804Z,19.75
2019-03-11T06:19:57.808Z,19.75
2019-03-11T06:20:57.964Z,19.75
2019-03-11T06:21:57.809Z,19.75
2019-03-11T06:22:57.806Z,19.75
2019-03-11T06:23:57.904Z,19.75
2019-03-11T06:24:57.946Z,19.75
2019-03-11T06:25:57.842Z,19.75
2019-03-11T06:26:57.878Z,20
2019-03-11T06:27:57.719Z,20
2019-03-11T06:28:57.882Z,20
2019-03-11T06:29:57.976Z,20
2019-03-11T06:30:57.738Z,20
2019-03-11T06:31:57.835Z,20
2019-03-11T06:32:57.908Z,20
2019-03-11T06:33:58.062Z,20
2019-03-11T06:34:57.971Z,20
2019-03-11T06:35:57.766Z,20
2019-03-11T06:36:57.826Z,20
2019-03-11T06:37:57.960Z,20
2019-03-11T06:39:06.447Z,20
2019-03-11T06:39:57.798Z,20
2019-03-11T06:40:57.955Z,20
2019-03-11T06:41:57.901Z,20
2019-03-11T06:42:58.277Z,20
2019-03-11T06:43:57.985Z,20
2019-03-11T06:44:57.902Z,20
2019-03-11T06:45:57.861Z,20
2019-03-11T06:46:57.711Z,20
2019-03-11T06:47:57.785Z,20
2019-03-11T06:48:57.900Z,20
2019-03-11T06:49:57.708Z,20
2019-03-11T06:50:57.843Z,20
2019-03-11T06:51:57.852Z,20
2019-03-11T06:52:57.815Z,20
2019-03-11T06:53:57.874Z,20
2019-03-11T06:54:58.035Z,20
2019-03-11T06:55:58.162Z,20
2019-03-11T06:56:57.902Z,20
2019-03-11T06:57:57.938Z,20
2019-03-11T06:58:57.700Z,20
2019-03-11T06:59:57.910Z,20
2019-03-11T07:00:57.813Z,20
2019-03-11T07:01:57.780Z,20.25
2019-03-11T07:02:57.886Z,20
2019-03-11T07:03:57.845Z,20.25
2019-03-11T07:04:57.770Z,20.25
2019-03-11T07:05:57.901Z,20
2019-03-11T07:06:57.707Z,20
2019-03-11T07:07:57.915Z,20.25
2019-03-11T07:08:57.929Z,20.25
2019-03-11T07:09:57.756Z,20.25
2019-03-11T07:10:57.856Z,20.25
2019-03-11T07:11:57.875Z,20.25
2019-03-11T07:12:57.756Z,20.25
2019-03-11T07:13:57.829Z,20
2019-03-11T07:14:57.654Z,20.25
2019-03-11T07:15:57.782Z,20
2019-03-11T07:16:57.846Z,20
2019-03-11T07:17:57.683Z,20
2019-03-11T07:18:57.775Z,20.25
2019-03-11T07:19:57.845Z,20
2019-03-11T07:20:57.717Z,20.25
2019-03-11T07:21:57.756Z,20
2019-03-11T07:22:57.904Z,20.25
2019-03-11T07:23:57.682Z,20.25
2019-03-11T07:24:57.905Z,20
2019-03-11T07:25:57.965Z,20
2019-03-11T07:26:57.692Z,20.25
2019-03-11T07:27:57.859Z,20
2019-03-11T07:28:57.926Z,20
2019-03-11T07:29:57.778Z,20
2019-03-11T07:30:57.931Z,20.25
2019-03-11T07:31:57.832Z,20
2019-03-11T07:32:57.798Z,20
2019-03-11T07:33:57.883Z,20
2019-03-11T07:35:09.123Z,20
2019-03-11T07:35:57.851Z,20
2019-03-11T07:36:57.903Z,20
2019-03-11T07:37:58.039Z,20
2019-03-11T07:38:58.189Z,20
2019-03-11T07:39:57.917Z,20
2019-03-11T07:40:57.713Z,20
2019-03-11T07:41:57.810Z,20
2019-03-11T07:42:57.680Z,20
2019-03-11T07:43:57.787Z,20
2019-03-11T07:44:57.842Z,20
2019-03-11T07:45:57.797Z,20
2019-03-11T07:46:57.819Z,20
2019-03-11T07:47:57.891Z,20
2019-03-11T07:48:57.707Z,20
2019-03-11T07:49:57.849Z,20
2019-03-11T07:50:57.882Z,20
2019-03-11T07:51:57.729Z,20
2019-03-11T07:52:57.846Z,20
2019-03-11T07:53:57.837Z,20
2019-03-11T07:54:57.698Z,20
2019-03-11T07:55:57.915Z,20
2019-03-11T07:56:57.722Z,20
2019-03-11T07:57:57.797Z,20.25
2019-03-11T07:58:57.856Z,20.25
2019-03-11T07:59:57.928Z,20.25
2019-03-11T08:00:57.731Z,20.25
2019-03-11T08:01:57.830Z,20.25
2019-03-11T08:02:57.737Z,20.25
2019-03-11T08:03:57.813Z,20.25
2019-03-11T08:04:57.916Z,20.25
2019-03-11T08:05:57.731Z,20.25
2019-03-11T08:06:57.910Z,20.25
2019-03-11T08:07:58.435Z,20.25
2019-03-11T08:08:57.794Z,20.25
2019-03-11T08:09:57.792Z,20.25
2019-03-11T08:10:57.608Z,20.25
2019-03-11T08:11:57.863Z,20.25
2019-03-11T08:12:57.943Z,20.25
2019-03-11T08:13:57.642Z,20.25
2019-03-11T08:14:57.828Z,20.25
2019-03-11T08:15:57.819Z,20.25
2019-03-11T08:16:57.792Z,20.25
2019-03-11T08:17:57.851Z,20.25
2019-03-11T08:18:57.898Z,20.25
2019-03-11T08:19:57.667Z,20.25
2019-03-11T08:20:57.839Z,20.25
2019-03-11T08:21:57.717Z,20.25
2019-03-11T08:22:57.702Z,20.25
2019-03-11T08:23:57.906Z,20.25
2019-03-11T08:24:57.709Z,20.25
2019-03-11T08:25:57.747Z,20.25
2019-03-11T08:26:57.916Z,20.25
2019-03-11T08:27:57.763Z,20.25
2019-03-11T08:28:57.796Z,20.25
2019-03-11T08:29:59.816Z,20.5
2019-03-11T08:30:57.691Z,20.5
2019-03-11T08:31:57.711Z,20.5
2019-03-11T08:32:57.925Z,20.5
2019-03-11T08:33:57.735Z,20.5
2019-03-11T08:34:57.743Z,20.5
2019-03-11T08:35:57.689Z,20.5
2019-03-11T08:36:57.893Z,20.5
2019-03-11T08:38:05.591Z,20.5
2019-03-11T08:38:57.922Z,20.5
2019-03-11T08:39:57.814Z,20.5
2019-03-11T08:40:57.945Z,20.5
2019-03-11T08:41:57.879Z,20.5
2019-03-11T08:42:57.757Z,20.5
2019-03-11T08:43:57.871Z,20.5
2019-03-11T08:44:57.645Z,20.5
2019-03-11T08:45:57.715Z,20.5
2019-03-11T08:46:57.759Z,20.5
2019-03-11T08:47:57.727Z,20.5
2019-03-11T08:48:57.753Z,20.5
2019-03-11T08:49:57.820Z,20.5
2019-03-11T08:50:57.745Z,20.5
2019-03-11T08:51:57.778Z,20.5
2019-03-11T08:52:57.834Z,20.5
2019-03-11T08:53:57.787Z,20.5
2019-03-11T08:54:57.849Z,20.5
2019-03-11T08:55:57.853Z,20.5
2019-03-11T08:56:57.670Z,20.5
2019-03-11T08:57:57.810Z,20.5
2019-03-11T08:58:57.707Z,20.5
2019-03-11T08:59:57.668Z,20.5
2019-03-11T09:00:57.864Z,20.5
2019-03-11T09:01:57.668Z,20.5
2019-03-11T09:02:57.839Z,20.5
2019-03-11T09:03:57.782Z,20.5
2019-03-11T09:04:58.016Z,20.5
2019-03-11T09:05:57.769Z,20.5
2019-03-11T09:06:57.888Z,20.5
2019-03-11T09:07:57.783Z,20.5
2019-03-11T09:08:57.878Z,20.5
2019-03-11T09:09:57.753Z,20.5
2019-03-11T09:10:57.786Z,20.75
2019-03-11T09:11:57.968Z,20.5
2019-03-11T09:12:57.696Z,20.5
2019-03-11T09:13:57.760Z,20.5
2019-03-11T09:14:57.836Z,20.75
2019-03-11T09:15:57.786Z,20.75
2019-03-11T09:16:57.838Z,20.75
2019-03-11T09:17:57.717Z,20.75
2019-03-11T09:18:57.819Z,20.75
2019-03-11T09:19:57.909Z,20.75
2019-03-11T09:20:57.738Z,20.75
2019-03-11T09:21:57.768Z,20.75
2019-03-11T09:22:57.884Z,20.75
2019-03-11T09:23:57.676Z,20.75
2019-03-11T09:24:57.800Z,20.75
2019-03-11T09:25:57.872Z,20.75
2019-03-11T09:26:58.462Z,20.75
2019-03-11T09:27:57.801Z,20.75
2019-03-11T09:28:57.717Z,20.75
2019-03-11T09:29:57.786Z,20.75
2019-03-11T09:30:57.818Z,20.75
2019-03-11T09:31:57.715Z,20.75
2019-03-11T09:32:57.818Z,20.75
2019-03-11T09:33:57.855Z,20.75
2019-03-11T09:34:57.623Z,20.75
2019-03-11T09:35:57.780Z,20.75
2019-03-11T09:36:57.740Z,20.75
2019-03-11T09:37:57.783Z,20.75
2019-03-11T09:38:57.840Z,20.75
2019-03-11T09:39:57.659Z,20.75
2019-03-11T09:40:57.757Z,20.75
2019-03-11T09:41:57.916Z,20.75
2019-03-11T09:42:57.625Z,20.75
2019-03-11T09:43:57.836Z,20.75
2019-03-11T09:44:57.780Z,20.75
2019-03-11T09:45:57.705Z,20.75
2019-03-11T09:46:57.865Z,20.75
2019-03-11T09:47:59.540Z,20.75
2019-03-11T09:48:57.695Z,20.75
2019-03-11T09:49:57.733Z,20.75
2019-03-11T09:50:59.458Z,20.75
2019-03-11T09:51:57.792Z,20.75
2019-03-11T09:52:57.881Z,20.75
2019-03-11T09:53:57.644Z,20.75
2019-03-11T09:54:57.725Z,20.75
2019-03-11T09:55:57.762Z,20.75
2019-03-11T09:56:57.613Z,20.75
2019-03-11T09:57:57.826Z,20.75
2019-03-11T09:58:57.984Z,20.75
2019-03-11T09:59:57.666Z,20.75
2019-03-11T10:00:57.815Z,20.75
2019-03-11T10:01:57.654Z,20.75
2019-03-11T10:02:57.719Z,20.75
2019-03-11T10:03:57.916Z,20.75
2019-03-11T10:04:57.595Z,20.75
2019-03-11T10:05:57.796Z,20.75
2019-03-11T10:06:57.964Z,20.75
2019-03-11T10:07:58.525Z,20.75
2019-03-11T10:08:57.767Z,20.75
2019-03-11T10:09:57.677Z,20.75
2019-03-11T10:10:57.686Z,20.75
2019-03-11T10:11:57.818Z,20.75
2019-03-11T10:12:57.610Z,20.75
2019-03-11T10:13:57.825Z,20.75
2019-03-11T10:14:57.797Z,20.75
2019-03-11T10:15:57.674Z,20.75
2019-03-11T10:16:57.825Z,20.75
2019-03-11T10:17:57.939Z,20.75
2019-03-11T10:18:57.666Z,20.75
2019-03-11T10:19:57.793Z,20.75
2019-03-11T10:20:57.623Z,20.75
2019-03-11T10:21:57.668Z,20.75
2019-03-11T10:22:57.796Z,20.75
2019-03-11T10:23:59.617Z,20.75
2019-03-11T10:24:57.685Z,20.75
2019-03-11T10:25:57.856Z,20.75
2019-03-11T10:26:57.686Z,20.75
2019-03-11T10:27:57.802Z,20.75
2019-03-11T10:28:57.838Z,20.75
2019-03-11T10:29:57.684Z,20.75
2019-03-11T10:30:58.108Z,20.75
2019-03-11T10:31:57.831Z,20.75
2019-03-11T10:32:57.700Z,20.75
2019-03-11T10:33:57.723Z,20.75
2019-03-11T10:34:57.552Z,20.75
2019-03-11T10:35:57.763Z,20.75
2019-03-11T10:36:57.715Z,20.75
2019-03-11T10:37:57.560Z,20.75
2019-03-11T10:38:57.725Z,20.75
2019-03-11T10:39:58.126Z,21
2019-03-11T10:40:57.724Z,21
2019-03-11T10:41:57.729Z,21
2019-03-11T10:42:57.847Z,21
2019-03-11T10:43:57.658Z,21
2019-03-11T10:44:57.796Z,21
2019-03-11T10:45:57.711Z,21
2019-03-11T10:46:57.695Z,21
2019-03-11T10:47:57.725Z,21
2019-03-11T10:48:57.635Z,21
2019-03-11T10:49:57.676Z,21
2019-03-11T10:50:58.390Z,21
2019-03-11T10:51:57.596Z,21
2019-03-11T10:52:57.783Z,21
2019-03-11T10:53:57.814Z,21
2019-03-11T10:54:57.626Z,21
2019-03-11T10:56:00.189Z,21
2019-03-11T10:56:57.851Z,21
2019-03-11T10:57:57.682Z,21
2019-03-11T10:58:57.747Z,21
2019-03-11T10:59:57.880Z,21
2019-03-11T11:00:57.645Z,21
2019-03-11T11:01:57.856Z,21
2019-03-11T11:02:57.579Z,21
2019-03-11T11:03:57.733Z,21
2019-03-11T11:04:57.736Z,21
2019-03-11T11:05:57.726Z,21
2019-03-11T11:06:57.729Z,21.25
2019-03-11T11:07:57.887Z,21.25
2019-03-11T11:08:57.998Z,21.25
2019-03-11T11:09:57.777Z,21.25
2019-03-11T11:10:57.749Z,21.25
2019-03-11T11:11:57.646Z,21.25
2019-03-11T11:12:57.796Z,21.25
2019-03-11T11:13:57.630Z,21.25
2019-03-11T11:14:57.663Z,21.25
2019-03-11T11:15:57.854Z,21.25
2019-03-11T11:16:57.678Z,21.25
2019-03-11T11:17:57.923Z,21.25
2019-03-11T11:18:57.566Z,21.25
2019-03-11T11:20:04.258Z,21.25
2019-03-11T11:20:57.865Z,21.25
2019-03-11T11:21:57.773Z,21.25
2019-03-11T11:22:57.769Z,21.25
2019-03-11T11:23:57.912Z,21.25
2019-03-11T11:24:57.599Z,21.25
2019-03-11T11:25:57.851Z,21.25
2019-03-11T11:26:58.091Z,21.25
2019-03-11T11:27:57.645Z,21.25
2019-03-11T11:28:57.833Z,21.25
2019-03-11T11:29:57.617Z,21.25
2019-03-11T11:30:57.700Z,21.25
2019-03-11T11:31:57.776Z,21.25
2019-03-11T11:32:57.989Z,21.25
2019-03-11T11:33:57.702Z,21.25
2019-03-11T11:34:57.881Z,21.25
2019-03-11T11:35:57.827Z,21.25
2019-03-11T11:36:57.696Z,21.25
2019-03-11T11:37:58.240Z,21.25
2019-03-11T11:38:57.689Z,21.5
2019-03-11T11:39:57.726Z,21.5
2019-03-11T11:40:57.533Z,21.5
2019-03-11T11:41:57.731Z,21.5
2019-03-11T11:42:57.980Z,21.5
2019-03-11T11:43:57.620Z,21.5
2019-03-11T11:44:57.728Z,21.5
2019-03-11T11:45:57.576Z,21.5
2019-03-11T11:46:57.751Z,21.5
2019-03-11T11:47:57.765Z,21.5
2019-03-11T11:48:57.612Z,21.5
2019-03-11T11:49:57.659Z,21.5
2019-03-11T11:50:57.793Z,21.5
2019-03-11T11:51:57.645Z,21.5
2019-03-11T11:52:57.691Z,21.5
2019-03-11T11:53:57.885Z,21.5
2019-03-11T11:54:57.630Z,21.5
2019-03-11T11:55:58.444Z,21.5
2019-03-11T11:56:57.638Z,21.5
2019-03-11T11:57:57.967Z,21.5
2019-03-11T11:58:57.734Z,21.5
2019-03-11T11:59:57.562Z,21.5
2019-03-11T12:00:57.696Z,21.5
2019-03-11T12:02:04.528Z,21.5
2019-03-11T12:02:57.771Z,21.5
2019-03-11T12:03:57.700Z,21.5
2019-03-11T12:04:57.749Z,21.5
2019-03-11T12:05:57.694Z,21.5
2019-03-11T12:06:57.717Z,21.5
2019-03-11T12:07:57.796Z,21.5
2019-03-11T12:08:57.639Z,21.5
2019-03-11T12:09:57.781Z,21.5
2019-03-11T12:10:57.787Z,21.5
2019-03-11T12:11:57.635Z,21.5
2019-03-11T12:12:57.785Z,21.5
2019-03-11T12:13:57.756Z,21.25
2019-03-11T12:14:57.763Z,21.5
2019-03-11T12:15:57.783Z,21.5
2019-03-11T12:16:57.663Z,21.5
2019-03-11T12:17:57.670Z,21.25
2019-03-11T12:18:57.662Z,21.5
2019-03-11T12:19:57.718Z,21.25
2019-03-11T12:20:57.691Z,21.5
2019-03-11T12:21:57.652Z,21.5
2019-03-11T12:22:57.808Z,21.5
2019-03-11T12:23:57.722Z,21.25
2019-03-11T12:24:57.583Z,21.25
2019-03-11T12:25:57.645Z,21.5
2019-03-11T12:26:57.710Z,21.5
2019-03-11T12:27:58.849Z,21.5
2019-03-11T12:28:57.671Z,21.25
2019-03-11T12:29:57.729Z,21.25
2019-03-11T12:30:57.589Z,21.25
2019-03-11T12:31:57.733Z,21.25
2019-03-11T12:32:57.752Z,21.25
2019-03-11T12:33:57.692Z,21.25
2019-03-11T12:34:57.780Z,21.25
2019-03-11T12:35:57.582Z,21.25
2019-03-11T12:36:57.635Z,21.25
2019-03-11T12:37:57.888Z,21.25
2019-03-11T12:38:57.685Z,21.5
2019-03-11T12:39:57.745Z,21.5
2019-03-11T12:40:57.830Z,21.5
2019-03-11T12:41:57.799Z,21.5
2019-03-11T12:42:57.750Z,21.5
2019-03-11T12:43:57.532Z,21.5
2019-03-11T12:44:57.731Z,21.5
2019-03-11T12:45:57.789Z,21.5
2019-03-11T12:46:57.636Z,21.5
2019-03-11T12:47:57.668Z,21.5
2019-03-11T12:48:57.590Z,21.5
2019-03-11T12:49:57.602Z,21.5
2019-03-11T12:50:57.840Z,21.5
2019-03-11T12:51:57.616Z,21.5
2019-03-11T12:52:57.653Z,21.5
2019-03-11T12:53:57.842Z,21.5
2019-03-11T12:54:57.638Z,21.5
2019-03-11T12:55:57.690Z,21.5
2019-03-11T12:56:57.918Z,21.5
2019-03-11T12:57:57.739Z,21.5
2019-03-11T12:58:57.670Z,21.5
2019-03-11T12:59:57.574Z,21.5
2019-03-11T13:00:57.740Z,21.5
2019-03-11T13:01:57.805Z,21.5
2019-03-11T13:02:57.658Z,21.5
2019-03-11T13:03:57.752Z,21.5
2019-03-11T13:04:57.809Z,21.5
2019-03-11T13:05:57.586Z,21.5
2019-03-11T13:06:57.779Z,21.5
2019-03-11T13:07:57.588Z,21.5
2019-03-11T13:08:57.731Z,21.5
2019-03-11T13:09:57.837Z,21.5
2019-03-11T13:10:57.592Z,21.5
2019-03-11T13:11:57.638Z,21.5
2019-03-11T13:12:57.750Z,21.5
2019-03-11T13:13:57.627Z,21.5
2019-03-11T13:14:57.722Z,21.5
2019-03-11T13:15:57.796Z,21.5
2019-03-11T13:16:57.631Z,21.5